This demonstration page uses our WeatherBlox Daily Observations layout. Learn more.

36.19886, -115.1175

Hourly Observations for July 16, 2018

Temp ( °F °C ) Dew Point ( °F °C ) Humidity (%) Winds ( mph kmh ) Pressure ( in mb ) Visibility ( mi km ) Precip ( " mm )
12:53 am 00:53 Clear 92 33.3 62 16.7 37 37 ESE 7 11 29.83 1010 10 16.09344 0 0
1:53 am 01:53 Clear 91 32.8 61 16.1 37 37 ESE 7 11 29.83 1010 10 16.09344 0 0
2:53 am 02:53 Clear 89 31.7 61 16.1 39 39 E 7 11 29.83 1010 10 16.09344 0 0
3:53 am 03:53 Clear 88 31.1 61 16.1 40 40 E 5 7 29.83 1010 10 16.09344 0 0
4:53 am 04:53 Clear 87 30.6 62 16.7 43 43 ENE 9 15 29.85 1011 10 16.09344 0 0
5:53 am 05:53 Sunny 87 30.6 63 17.2 45 45 N 7 11 29.85 1011 10 16.09344 0 0
6:53 am 06:53 Sunny 87 30.6 63 17.2 45 45 NE 7 11 29.88 1012 10 16.09344 0 0
7:53 am 07:53 Sunny 89 31.7 63 17.2 42 42 E 5 7 29.88 1012 10 16.09344 0 0
8:53 am 08:53 Sunny 92 33.3 60 15.6 34 34 E 7 11 29.91 1013 10 16.09344 0 0
9:53 am 09:53 Sunny 94 34.4 61 16.1 33 33 SE 9 15 29.91 1013 10 16.09344 0 0
10:53 am 10:53 Sunny 97 36.1 60 15.6 29 29 ESE 9 15 29.88 1012 10 16.09344 0 0
11:53 am 11:53 Sunny 99 37.2 59 15 27 27 SE 8 13 29.88 1012 10 16.09344 0 0
12:53 pm 12:53 Sunny 101 38.3 58 14.4 24 24 SE 9 15 29.85 1011 10 16.09344 0 0
1:53 pm 13:53 Sunny 103 39.4 58 14.4 23 23 N 7 11 29.83 1010 10 16.09344 0 0
2:53 pm 14:53 Sunny 106 41.1 56 13.3 19 19 SE 5 7 29.8 1009 10 16.09344 0 0
3:53 pm 15:53 Sunny 107 41.7 55 12.8 18 18 Calm 29.8 1009 10 16.09344 0 0
4:53 pm 16:53 Sunny 106 41.1 54 12.2 18 18 ESE 6 9 29.77 1008 10 16.09344 0 0
5:53 pm 17:53 Sunny 106 41.1 53 11.7 17 17 SSE 6 9 29.74 1007 10 16.09344 0 0
6:53 pm 18:53 Sunny 105 40.6 53 11.7 18 18 SE 7 11 29.74 1007 10 16.09344 0 0
7:53 pm 19:53 Sunny 104 40 53 11.7 18 18 SE 8 13 29.77 1008 10 16.09344 0 0
8:53 pm 20:53 Clear 103 39.4 56 13.3 21 21 SSE 9 15 29.77 1008 10 16.09344 0 0
9:53 pm 21:53 Clear 101 38.3 56 13.3 22 22 S 6 9 29.8 1009 10 16.09344 0 0
10:53 pm 22:53 Clear 98 36.7 56 13.3 24 24 SE 6 9 29.8 1009 10 16.09344 0 0
11:53 pm 23:53 Clear 98 36.7 56 13.3 24 24 S 6 9 29.8 1009 10 16.09344 0 0

Powered by AerisWeather